Time;durP1;ratioP1;P1;durP2;ratioP2;P2;SDS_P1;SDS_P2;PMS_P1;PMS_P2;Temp;Humidity;BMP_temperature;BMP_pressure;BME280_temperature;BME280_humidity;BME280_pressure;Samples;Min_cycle;Max_cycle;Signal;HPM_P1;HPM_P2
2023/11/29 00:01:48;;;;;;;37.50;15.40;;;;;;;-3.37;87.45;98667.89;219905;1253;140356;-69
2023/11/29 00:06:53;;;;;;;25.70;11.40;;;;;;;-3.36;87.52;98672.58;219582;1254;140651;-71
2023/11/29 00:11:59;;;;;;;27.40;12.60;;;;;;;-3.38;86.96;98669.59;220210;1254;139977;-68
2023/11/29 00:17:04;;;;;;;26.80;14.50;;;;;;;-3.37;87.15;98674.37;219342;1254;141300;-71
2023/11/29 00:22:15;;;;;;;34.00;15.10;;;;;;;-3.34;87.19;98676.60;220403;1254;140102;-69
2023/11/29 00:27:21;;;;;;;27.60;12.80;;;;;;;-3.31;87.25;98678.41;218661;1254;142040;-68
2023/11/29 00:32:26;;;;;;;33.50;15.40;;;;;;;-3.30;87.11;98685.64;218764;1253;139978;-65
2023/11/29 00:37:31;;;;;;;34.50;14.40;;;;;;;-3.29;87.08;98686.13;219267;1253;140465;-69
2023/11/29 00:42:37;;;;;;;38.00;16.40;;;;;;;-3.29;87.14;98691.27;218179;1257;140150;-70
2023/11/29 00:47:44;;;;;;;26.10;13.50;;;;;;;-3.29;87.17;98699.45;218176;1253;139895;-69
2023/11/29 00:52:50;;;;;;;29.20;14.50;;;;;;;-3.31;87.08;98700.77;218876;1253;139997;-72
2023/11/29 00:57:56;;;;;;;28.80;14.90;;;;;;;-3.35;87.03;98706.42;219091;1257;140808;-71
2023/11/29 01:03:01;;;;;;;28.40;14.80;;;;;;;-3.38;87.05;98705.99;218254;1254;140167;-69
2023/11/29 01:08:08;;;;;;;27.20;12.70;;;;;;;-3.38;87.03;98711.40;218703;1253;140625;-70
2023/11/29 01:13:13;;;;;;;30.80;14.00;;;;;;;-3.38;87.15;98715.54;218275;1254;139947;-70
2023/11/29 01:18:17;;;;;;;33.90;15.70;;;;;;;-3.35;87.30;98708.78;218253;1254;140444;-69
2023/11/29 01:23:21;;;;;;;35.40;17.20;;;;;;;-3.35;87.11;98707.91;218683;1253;140472;-68
2023/11/29 01:28:27;;;;;;;31.30;13.60;;;;;;;-3.33;87.22;98710.70;218326;1257;139928;-69
2023/11/29 01:33:32;;;;;;;30.20;13.50;;;;;;;-3.34;87.13;98714.02;218437;1253;140545;-68
2023/11/29 01:38:37;;;;;;;39.80;19.00;;;;;;;-3.36;87.24;98718.35;218193;1255;140771;-70
2023/11/29 01:43:43;;;;;;;26.80;14.00;;;;;;;-3.34;87.36;98722.23;218296;1254;140548;-69
2023/11/29 01:48:48;;;;;;;29.80;13.90;;;;;;;-3.35;87.15;98723.23;219340;1254;140180;-68
2023/11/29 01:53:53;;;;;;;27.60;14.70;;;;;;;-3.42;86.91;98718.63;218101;1257;140466;-69
2023/11/29 01:59:00;;;;;;;33.80;14.40;;;;;;;-3.45;86.90;98718.47;218590;1254;139943;-69
2023/11/29 02:04:05;;;;;;;27.60;14.80;;;;;;;-3.47;87.23;98721.56;218659;1254;139778;-69
2023/11/29 02:09:10;;;;;;;25.20;13.10;;;;;;;-3.46;87.20;98723.27;220905;1253;140309;-71
2023/11/29 02:14:16;;;;;;;29.40;14.90;;;;;;;-3.47;86.99;98731.86;218247;1254;139785;-67
2023/11/29 02:19:20;;;;;;;37.00;20.20;;;;;;;-3.47;87.12;98743.16;218618;1254;140131;-73
2023/11/29 02:24:29;;;;;;;34.10;13.90;;;;;;;-3.46;86.89;98749.77;219151;1253;140249;-71
2023/11/29 02:29:33;;;;;;;29.00;14.90;;;;;;;-3.50;86.70;98750.76;218988;1254;150906;-71
2023/11/29 02:34:38;;;;;;;31.70;16.00;;;;;;;-3.51;86.78;98753.63;219247;1254;140934;-69
2023/11/29 02:39:43;;;;;;;37.30;17.70;;;;;;;-3.50;86.92;98753.23;218305;1253;141201;-67
2023/11/29 02:44:48;;;;;;;43.00;17.30;;;;;;;-3.54;86.74;98755.59;218551;1253;139822;-71
2023/11/29 02:49:53;;;;;;;39.20;17.30;;;;;;;-3.58;86.49;98759.48;218680;1254;139963;-70
2023/11/29 02:54:58;;;;;;;42.20;19.40;;;;;;;-3.59;86.68;98756.61;219363;1256;141908;-68
2023/11/29 03:00:04;;;;;;;33.00;14.70;;;;;;;-3.57;86.80;98758.20;219107;1253;140003;-70
2023/11/29 03:05:09;;;;;;;35.50;17.40;;;;;;;-3.57;86.61;98757.52;218778;1257;140216;-70
2023/11/29 03:10:15;;;;;;;32.80;18.10;;;;;;;-3.59;86.57;98753.52;219184;1253;140243;-70
2023/11/29 03:15:21;;;;;;;38.60;19.00;;;;;;;-3.57;86.61;98752.08;218420;1257;141262;-67
2023/11/29 03:20:26;;;;;;;34.90;17.60;;;;;;;-3.55;86.44;98746.15;218031;1253;140665;-68
2023/11/29 03:25:31;;;;;;;35.20;16.20;;;;;;;-3.60;86.33;98748.97;218096;1257;140031;-68
2023/11/29 03:30:35;;;;;;;31.20;17.60;;;;;;;-3.67;86.27;98745.25;218773;1255;140265;-68
2023/11/29 03:35:39;;;;;;;28.60;14.00;;;;;;;-3.68;86.18;98744.00;218434;1253;141411;-68
2023/11/29 03:40:43;;;;;;;30.30;13.80;;;;;;;-3.74;86.00;98748.89;219071;1254;141163;-67
2023/11/29 03:45:49;;;;;;;33.60;15.00;;;;;;;-3.78;86.07;98753.89;219179;1253;140364;-66
2023/11/29 03:50:53;;;;;;;28.10;14.00;;;;;;;-3.80;85.88;98757.66;219557;1253;141428;-68
2023/11/29 03:55:59;;;;;;;35.70;15.20;;;;;;;-3.84;85.80;98755.33;218900;1255;140184;-69
2023/11/29 04:01:04;;;;;;;33.70;16.20;;;;;;;-3.88;85.95;98755.14;219417;1255;141111;-70
2023/11/29 04:06:09;;;;;;;29.80;14.00;;;;;;;-3.87;86.18;98764.52;218732;1253;140257;-70
2023/11/29 04:11:14;;;;;;;34.90;15.70;;;;;;;-3.86;86.13;98763.98;220603;1253;140225;-71
2023/11/29 04:16:24;;;;;;;17.80;9.20;;;;;;;-3.87;85.84;98763.53;220788;1254;140084;-71
2023/11/29 04:21:31;;;;;;;33.40;15.20;;;;;;;-3.92;85.47;98764.98;220723;1253;140056;-71
2023/11/29 04:26:39;;;;;;;32.90;18.10;;;;;;;-3.98;85.51;98767.89;220670;1253;140348;-70
2023/11/29 04:31:45;;;;;;;35.50;17.40;;;;;;;-4.00;85.78;98778.16;219388;1253;139867;-70
2023/11/29 04:36:52;;;;;;;35.30;18.60;;;;;;;-3.94;85.71;98788.63;218292;1257;141499;-70
2023/11/29 04:41:58;;;;;;;39.00;17.50;;;;;;;-3.98;85.79;98792.85;219049;1253;140226;-70
2023/11/29 04:47:03;;;;;;;38.70;15.30;;;;;;;-4.02;85.94;98785.88;218584;1253;140506;-70
2023/11/29 04:52:08;;;;;;;39.50;16.10;;;;;;;-4.03;85.95;98789.73;218502;1253;139888;-71
2023/11/29 04:57:12;;;;;;;32.60;14.10;;;;;;;-4.09;85.88;98790.52;220289;1253;141135;-70
2023/11/29 05:02:18;;;;;;;41.10;19.10;;;;;;;-4.12;86.15;98784.23;218226;1253;140195;-70
2023/11/29 05:07:23;;;;;;;40.30;20.30;;;;;;;-4.08;86.05;98786.84;219533;1253;140132;-70
2023/11/29 05:12:28;;;;;;;40.10;15.80;;;;;;;-4.04;86.28;98787.43;218392;1253;140373;-70
2023/11/29 05:17:32;;;;;;;37.90;14.20;;;;;;;-4.00;86.24;98786.55;218468;1257;140524;-70
2023/11/29 05:22:37;;;;;;;37.60;15.40;;;;;;;-3.99;86.17;98788.15;218431;1255;140194;-70
2023/11/29 05:27:42;;;;;;;45.40;15.90;;;;;;;-4.00;86.26;98785.77;219508;1255;140591;-70
2023/11/29 05:32:47;;;;;;;39.90;15.30;;;;;;;-4.03;86.21;98789.41;218016;1253;140397;-69
2023/11/29 05:37:51;;;;;;;42.10;21.20;;;;;;;-4.02;86.27;98793.97;218656;1253;140696;-69
2023/11/29 05:42:57;;;;;;;44.80;19.80;;;;;;;-4.00;86.44;98790.67;218617;1253;141098;-68
2023/11/29 05:48:03;;;;;;;38.70;17.70;;;;;;;-3.96;86.36;98793.09;218836;1253;140229;-71
2023/11/29 05:53:08;;;;;;;32.90;14.90;;;;;;;-3.92;86.54;98802.27;218815;1253;141258;-70
2023/11/29 05:58:14;;;;;;;25.70;11.30;;;;;;;-3.93;86.38;98804.67;220065;1256;140869;-70
2023/11/29 06:03:19;;;;;;;31.30;13.30;;;;;;;-3.92;86.36;98811.11;220219;1254;140610;-71
2023/11/29 06:08:23;;;;;;;31.70;13.00;;;;;;;-3.88;86.30;98818.86;220344;1253;141551;-70
2023/11/29 06:13:29;;;;;;;34.80;15.50;;;;;;;-3.84;86.44;98821.16;220784;1253;140522;-71
2023/11/29 06:18:34;;;;;;;39.70;17.50;;;;;;;-3.80;86.36;98816.55;219501;1253;140715;-70
2023/11/29 06:23:41;;;;;;;34.90;15.30;;;;;;;-3.78;86.17;98818.63;220710;1253;143521;-71
2023/11/29 06:28:48;;;;;;;31.20;13.50;;;;;;;-3.79;86.33;98820.67;219921;1254;141924;-70
2023/11/29 06:33:55;;;;;;;32.00;14.80;;;;;;;-3.74;86.39;98827.41;218878;1253;140959;-70
2023/11/29 06:39:01;;;;;;;24.80;12.20;;;;;;;-3.69;86.41;98830.89;219179;1257;142116;-68
2023/11/29 06:44:08;;;;;;;22.30;11.70;;;;;;;-3.70;86.36;98831.87;218625;1253;140928;-68
2023/11/29 06:49:13;;;;;;;32.60;12.50;;;;;;;-3.68;86.38;98836.45;219226;1254;140166;-69
2023/11/29 06:54:19;;;;;;;32.30;13.80;;;;;;;-3.62;86.45;98841.56;219772;1254;141071;-68
2023/11/29 06:59:25;;;;;;;29.10;11.90;;;;;;;-3.58;86.53;98838.63;218291;1253;139986;-67
2023/11/29 07:04:32;;;;;;;40.80;15.80;;;;;;;-3.54;86.50;98845.50;219260;1254;141917;-68
2023/11/29 07:09:38;;;;;;;35.80;14.60;;;;;;;-3.53;86.52;98854.31;218329;1253;141396;-69
2023/11/29 07:14:43;;;;;;;41.90;14.80;;;;;;;-3.49;86.77;98859.77;218179;1253;140308;-69
2023/11/29 07:19:49;;;;;;;39.20;18.20;;;;;;;-3.45;86.55;98862.13;218558;1253;142222;-69
2023/11/29 07:24:56;;;;;;;40.10;17.20;;;;;;;-3.41;86.73;98862.63;218101;1253;140057;-67
2023/11/29 07:30:02;;;;;;;36.70;15.70;;;;;;;-3.36;86.73;98868.77;218694;1253;140100;-69
2023/11/29 07:35:08;;;;;;;36.80;16.20;;;;;;;-3.35;86.55;98872.48;219017;1253;142146;-67
2023/11/29 07:40:14;;;;;;;32.70;17.00;;;;;;;-3.33;86.59;98878.68;219440;1256;140364;-68
2023/11/29 07:45:19;;;;;;;28.00;11.90;;;;;;;-3.28;86.70;98878.71;219426;1253;141331;-68
2023/11/29 07:50:25;;;;;;;35.40;13.80;;;;;;;-3.23;86.60;98884.50;218758;1253;140220;-69
2023/11/29 07:55:30;;;;;;;35.40;16.30;;;;;;;-3.16;86.57;98883.08;220685;1257;214094;-70
2023/11/29 08:00:34;;;;;;;22.60;11.40;;;;;;;-3.07;86.44;98888.46;220780;1253;140305;-71
2023/11/29 08:05:40;;;;;;;31.50;14.90;;;;;;;-3.02;85.97;98894.75;220294;1253;140320;-68
2023/11/29 08:10:47;;;;;;;19.10;10.60;;;;;;;-2.99;85.93;98902.20;220859;1253;140992;-70
2023/11/29 08:15:52;;;;;;;19.40;9.50;;;;;;;-2.94;85.70;98907.05;220872;1253;140031;-71
2023/11/29 08:20:58;;;;;;;19.30;10.30;;;;;;;-2.93;85.24;98911.41;220853;1253;141484;-71
2023/11/29 08:26:04;;;;;;;17.00;8.50;;;;;;;-2.96;85.04;98912.98;220876;1256;140339;-71
2023/11/29 08:31:10;;;;;;;23.20;11.20;;;;;;;-2.96;84.85;98920.27;220225;1253;139961;-70
2023/11/29 08:36:15;;;;;;;16.90;10.10;;;;;;;-2.96;84.70;98916.83;219689;1256;141025;-70
2023/11/29 08:41:20;;;;;;;24.40;11.60;;;;;;;-2.93;84.74;98920.02;218537;1253;140804;-69
2023/11/29 08:46:26;;;;;;;15.70;9.30;;;;;;;-2.85;84.91;98927.91;218946;1253;141529;-69
2023/11/29 08:51:33;;;;;;;16.50;9.00;;;;;;;-2.81;84.52;98926.80;220009;1253;140241;-69
2023/11/29 08:56:40;;;;;;;14.20;7.80;;;;;;;-2.80;84.38;98924.80;218501;1257;222360;-68
2023/11/29 09:01:45;;;;;;;14.40;8.80;;;;;;;-2.77;84.20;98917.11;219140;1257;141038;-67
2023/11/29 09:06:51;;;;;;;21.30;10.30;;;;;;;-2.74;83.95;98917.68;219278;1253;141857;-69
2023/11/29 09:11:57;;;;;;;20.10;8.80;;;;;;;-2.72;84.15;98916.89;218105;1253;140053;-68
2023/11/29 09:17:04;;;;;;;24.70;12.40;;;;;;;-2.68;83.96;98918.61;218503;1253;139968;-68
2023/11/29 09:22:08;;;;;;;20.70;10.10;;;;;;;-2.65;83.67;98920.48;218704;1253;140111;-68
2023/11/29 09:27:14;;;;;;;22.80;10.40;;;;;;;-2.67;83.39;98918.50;218690;1253;139841;-68
2023/11/29 09:32:20;;;;;;;23.20;9.00;;;;;;;-2.67;83.47;98921.60;219011;1253;140768;-68
2023/11/29 09:37:25;;;;;;;19.60;9.10;;;;;;;-2.64;83.28;98916.96;219329;1253;140438;-69
2023/11/29 09:42:33;;;;;;;24.10;9.60;;;;;;;-2.64;83.11;98909.92;218637;1258;140246;-69
2023/11/29 09:47:39;;;;;;;;;;;;;;;-2.56;83.41;98909.89;219072;1256;140830;-69
2023/11/29 09:52:43;;;;;;;28.80;12.60;;;;;;;-2.51;83.43;98907.58;220888;1253;126314;-69
2023/11/29 09:57:48;;;;;;;25.60;11.90;;;;;;;-2.43;83.29;98904.13;221069;1255;140754;-69
2023/11/29 10:02:54;;;;;;;28.60;11.80;;;;;;;-2.43;82.62;98899.73;219713;1253;141161;-69
2023/11/29 10:08:00;;;;;;;22.30;10.30;;;;;;;-2.41;82.44;98895.18;220884;1253;140794;-69
2023/11/29 10:13:04;;;;;;;26.30;13.10;;;;;;;-2.35;82.48;98894.17;220753;1253;140254;-69
2023/11/29 10:18:09;;;;;;;24.00;11.00;;;;;;;-2.29;82.31;98894.68;220901;1256;140851;-70
2023/11/29 10:23:14;;;;;;;22.10;11.80;;;;;;;-2.22;82.32;98897.26;220491;1256;140061;-69
2023/11/29 10:28:19;;;;;;;17.20;8.20;;;;;;;-2.09;82.17;98891.93;220753;1253;141505;-68
2023/11/29 10:33:24;;;;;;;17.20;9.10;;;;;;;-2.00;82.08;98887.79;219988;1253;142161;-67
2023/11/29 10:38:37;;;;;;;14.60;7.70;;;;;;;-1.91;81.89;98888.45;219804;1254;141510;-69
2023/11/29 10:43:46;;;;;;;20.70;9.50;;;;;;;-1.87;81.59;98889.01;219039;1258;139828;-68
2023/11/29 10:49:04;;;;;;;21.90;11.50;;;;;;;-1.88;81.45;98886.17;219406;1256;140910;-68
2023/11/29 10:54:10;;;;;;;20.40;11.50;;;;;;;-1.87;81.34;98889.20;219019;1256;140220;-68
2023/11/29 10:59:41;;;;;;;20.50;10.30;;;;;;;-1.87;81.40;98882.54;218932;1256;140936;-68
2023/11/29 11:05:08;;;;;;;20.60;9.50;;;;;;;-1.88;81.27;98881.80;217900;1259;139779;-68
2023/11/29 11:10:25;;;;;;;23.00;11.20;;;;;;;-1.92;81.08;98882.81;218361;1254;140303;-69
2023/11/29 11:15:33;;;;;;;24.60;11.20;;;;;;;-1.96;80.95;98888.52;218341;1256;140369;-69
2023/11/29 11:20:50;;;;;;;20.20;10.20;;;;;;;-2.02;80.67;98888.36;217958;1256;140187;-69
2023/11/29 11:26:11;;;;;;;22.80;11.60;;;;;;;-2.04;80.63;98881.62;217865;1255;140287;-69
2023/11/29 11:31:17;;;;;;;24.20;12.20;;;;;;;-2.11;80.57;98884.41;217735;1256;141086;-68
2023/11/29 11:36:23;;;;;;;26.80;12.20;;;;;;;-2.16;80.62;98879.28;218375;1253;140681;-67
2023/11/29 11:41:28;;;;;;;32.00;13.70;;;;;;;-2.12;80.78;98881.21;218782;1258;140128;-68
2023/11/29 11:46:34;;;;;;;30.90;14.10;;;;;;;-2.06;80.84;98876.08;218401;1253;140107;-67
2023/11/29 11:51:39;;;;;;;22.60;13.70;;;;;;;-2.08;80.63;98871.68;219015;1257;140098;-68
2023/11/29 11:56:44;;;;;;;27.60;14.00;;;;;;;-2.06;80.64;98867.38;218184;1253;142202;-67
2023/11/29 12:01:50;;;;;;;36.50;14.00;;;;;;;-2.02;80.69;98863.19;218721;1253;140448;-67
2023/11/29 12:06:56;;;;;;;32.10;15.60;;;;;;;-1.98;80.60;98865.05;218359;1253;140251;-67
2023/11/29 12:12:11;;;;;;;29.10;14.30;;;;;;;-2.04;80.51;98862.74;220916;1253;142925;-68
2023/11/29 12:17:18;;;;;;;23.20;12.50;;;;;;;-1.98;80.79;98864.40;220192;1253;140718;-69
2023/11/29 12:22:25;;;;;;;29.10;14.40;;;;;;;-1.98;80.43;98862.24;220140;1253;139969;-70
2023/11/29 12:27:31;;;;;;;28.10;12.00;;;;;;;-1.97;80.28;98859.60;218382;1253;140158;-69
2023/11/29 12:32:35;;;;;;;23.70;11.60;;;;;;;-1.98;80.36;98857.52;218515;1254;140492;-69
2023/11/29 12:37:46;;;;;;;31.90;14.50;;;;;;;-2.03;80.28;98859.17;219071;1253;142419;-68
2023/11/29 12:42:52;;;;;;;29.80;15.00;;;;;;;-2.08;80.35;98848.94;218069;1253;142272;-69
2023/11/29 12:48:03;;;;;;;27.70;13.10;;;;;;;-2.13;80.33;98851.95;218940;1253;140661;-68
2023/11/29 12:53:09;;;;;;;22.40;12.60;;;;;;;-2.20;80.21;98858.21;218582;1253;139981;-67
2023/11/29 12:58:14;;;;;;;22.20;10.30;;;;;;;-2.25;80.23;98857.40;218308;1253;140439;-69
2023/11/29 13:03:19;;;;;;;23.60;12.00;;;;;;;-2.33;80.12;98855.30;218186;1256;140463;-67
2023/11/29 13:08:23;;;;;;;23.30;12.30;;;;;;;-2.37;80.17;98858.19;218716;1253;139970;-70
2023/11/29 13:13:29;;;;;;;24.30;12.20;;;;;;;-2.38;80.43;98855.71;218648;1253;140484;-70
2023/11/29 13:18:33;;;;;;;22.60;12.60;;;;;;;-2.39;80.45;98857.32;218445;1255;142095;-68
2023/11/29 13:23:38;;;;;;;26.60;13.80;;;;;;;-2.47;80.41;98855.86;218150;1253;140155;-69
2023/11/29 13:28:44;;;;;;;23.40;13.20;;;;;;;-2.48;80.62;98860.17;218771;1258;140433;-68
2023/11/29 13:33:49;;;;;;;26.50;11.60;;;;;;;-2.50;80.76;98861.35;218721;1258;140534;-68
2023/11/29 13:38:54;;;;;;;23.90;10.60;;;;;;;-2.52;80.69;98862.64;218926;1256;140318;-69
2023/11/29 13:43:59;;;;;;;25.50;11.70;;;;;;;-2.52;80.72;98866.91;218759;1255;139863;-67
2023/11/29 13:49:05;;;;;;;20.30;10.00;;;;;;;-2.56;80.70;98863.35;218199;1254;140159;-67
2023/11/29 13:54:10;;;;;;;18.40;11.30;;;;;;;-2.63;80.71;98859.73;218039;1254;142019;-67
2023/11/29 13:59:16;;;;;;;25.70;11.00;;;;;;;-2.67;80.77;98853.98;218567;1259;140973;-67
2023/11/29 14:04:21;;;;;;;28.20;12.90;;;;;;;-2.70;81.01;98853.92;218517;1257;140427;-67
2023/11/29 14:09:26;;;;;;;64.70;30.70;;;;;;;-2.72;80.97;98859.66;221069;1254;140220;-68
2023/11/29 14:14:31;;;;;;;31.40;13.50;;;;;;;-2.77;80.97;98860.86;220875;1253;140026;-70
2023/11/29 14:19:36;;;;;;;21.60;14.60;;;;;;;-2.80;81.08;98863.73;220880;1253;140819;-69
2023/11/29 14:24:42;;;;;;;23.10;11.30;;;;;;;-2.81;81.13;98866.27;220258;1254;140407;-68
2023/11/29 14:29:46;;;;;;;24.80;12.80;;;;;;;-2.80;81.26;98864.49;218627;1254;140269;-70
2023/11/29 14:34:54;;;;;;;21.70;12.80;;;;;;;-2.78;81.35;98870.35;219760;1257;140093;-67
2023/11/29 14:39:59;;;;;;;24.40;12.60;;;;;;;-2.77;81.20;98873.21;218451;1255;140156;-68
2023/11/29 14:45:06;;;;;;;20.60;8.10;;;;;;;-2.83;80.99;98871.39;218634;1255;140223;-70
2023/11/29 14:50:10;;;;;;;18.00;7.90;;;;;;;-2.91;80.99;98867.77;218142;1259;139942;-67
2023/11/29 14:55:14;;;;;;;17.00;9.10;;;;;;;-2.99;81.05;98866.29;218055;1259;139655;-65
2023/11/29 15:00:18;;;;;;;16.60;9.70;;;;;;;-3.04;81.23;98869.34;218860;1254;139652;-67
2023/11/29 15:05:23;;;;;;;18.60;10.60;;;;;;;-3.10;81.11;98858.07;218494;1259;140918;-67
2023/11/29 15:10:27;;;;;;;23.40;12.60;;;;;;;-3.18;81.13;98857.05;218214;1257;139948;-66
2023/11/29 15:15:32;;;;;;;24.30;9.90;;;;;;;-3.29;81.10;98861.41;218637;1258;140051;-66
2023/11/29 15:20:37;;;;;;;25.10;11.00;;;;;;;-3.40;81.13;98864.67;218322;1254;139672;-66
2023/11/29 15:25:42;;;;;;;21.60;11.70;;;;;;;-3.49;81.31;98864.05;218625;1258;140631;-69
2023/11/29 15:30:48;;;;;;;16.20;9.90;;;;;;;-3.54;81.40;98872.13;218156;1257;140497;-66
2023/11/29 15:35:53;;;;;;;23.40;11.20;;;;;;;-3.60;81.35;98872.59;218393;1255;139677;-66
2023/11/29 15:41:00;;;;;;;17.50;9.40;;;;;;;-3.67;81.46;98869.02;218670;1255;140311;-67
2023/11/29 15:46:04;;;;;;;24.20;10.80;;;;;;;-3.75;81.40;98863.94;218129;1255;233431;-66
2023/11/29 15:51:10;;;;;;;20.00;11.00;;;;;;;-3.85;81.56;98861.52;219570;1255;140873;-66
2023/11/29 15:56:15;;;;;;;17.80;9.70;;;;;;;-3.90;81.54;98865.80;218988;1254;140955;-67
2023/11/29 16:01:22;;;;;;;22.90;11.70;;;;;;;-3.97;81.38;98861.08;219068;1254;139744;-66
2023/11/29 16:06:28;;;;;;;19.20;9.90;;;;;;;-4.05;81.31;98859.92;220510;1254;140640;-67
2023/11/29 16:11:36;;;;;;;16.40;9.40;;;;;;;-4.17;81.27;98848.69;220568;1254;140759;-68
2023/11/29 16:16:41;;;;;;;27.10;11.60;;;;;;;-4.23;81.30;98844.77;219004;1257;140536;-67
2023/11/29 16:21:48;;;;;;;24.70;12.40;;;;;;;-4.32;81.22;98844.89;218084;1254;142848;-64
2023/11/29 16:26:52;;;;;;;26.10;12.90;;;;;;;-4.40;81.44;98851.84;219073;1254;140083;-66
2023/11/29 16:31:58;;;;;;;26.60;13.80;;;;;;;-4.45;81.62;98847.82;219917;1255;139874;-65
2023/11/29 16:37:03;;;;;;;22.00;14.00;;;;;;;-4.51;81.49;98846.73;219532;1254;140651;-65
2023/11/29 16:42:07;;;;;;;28.10;15.20;;;;;;;-4.55;81.69;98843.11;218074;1257;142037;-65
2023/11/29 16:47:12;;;;;;;24.20;12.30;;;;;;;-4.59;81.85;98837.98;218751;1254;142235;-65
2023/11/29 16:52:17;;;;;;;24.60;14.50;;;;;;;-4.62;81.76;98835.23;219325;1257;141084;-65
2023/11/29 16:57:25;;;;;;;31.50;13.70;;;;;;;-4.68;81.92;98838.69;219042;1254;140604;-64
2023/11/29 17:02:30;;;;;;;32.70;15.00;;;;;;;-4.71;82.01;98839.13;218799;1254;141449;-65
2023/11/29 17:07:35;;;;;;;30.60;14.50;;;;;;;-4.74;82.17;98832.14;217844;1254;140903;-64
2023/11/29 17:12:40;;;;;;;36.90;18.00;;;;;;;-4.83;82.00;98831.72;218324;1254;140630;-64
2023/11/29 17:17:44;;;;;;;26.00;13.10;;;;;;;-4.90;82.24;98829.34;217850;1257;140483;-64
2023/11/29 17:22:49;;;;;;;32.10;16.10;;;;;;;-4.95;82.47;98830.73;217966;1254;141278;-64
2023/11/29 17:27:54;;;;;;;37.50;17.30;;;;;;;-5.00;82.45;98831.65;219348;1254;140022;-65
2023/11/29 17:33:00;;;;;;;34.80;14.50;;;;;;;-5.05;82.84;98831.60;217813;1254;141427;-64
2023/11/29 17:38:06;;;;;;;39.30;20.00;;;;;;;-5.04;82.93;98829.55;219353;1254;141274;-65
2023/11/29 17:43:11;;;;;;;40.40;17.10;;;;;;;-5.05;82.93;98829.84;217912;1255;141074;-66
2023/11/29 17:48:16;;;;;;;25.40;11.00;;;;;;;-5.06;82.89;98834.97;220221;1254;140687;-66
2023/11/29 17:53:21;;;;;;;36.90;13.80;;;;;;;-5.06;83.10;98834.78;218720;1254;140187;-65
2023/11/29 17:58:25;;;;;;;29.30;13.70;;;;;;;-5.06;83.17;98829.64;220665;1254;140274;-65
2023/11/29 18:03:29;;;;;;;30.30;14.00;;;;;;;-5.08;83.17;98829.48;220946;1253;139849;-67
2023/11/29 18:08:34;;;;;;;42.60;17.10;;;;;;;-5.07;82.96;98826.81;220569;1254;140973;-66
2023/11/29 18:13:38;;;;;;;32.70;17.80;;;;;;;-5.12;83.01;98815.46;220864;1254;140561;-66
2023/11/29 18:18:43;;;;;;;42.20;17.20;;;;;;;-5.15;83.05;98815.38;220637;1254;140324;-66
2023/11/29 18:23:49;;;;;;;35.20;17.70;;;;;;;-5.13;83.35;98815.58;219578;1256;140584;-66
2023/11/29 18:28:57;;;;;;;33.10;15.30;;;;;;;-5.14;83.09;98819.26;219332;1254;141327;-66
2023/11/29 18:34:01;;;;;;;31.30;17.30;;;;;;;-5.14;83.03;98822.98;217926;1257;140062;-65
2023/11/29 18:39:09;;;;;;;41.00;18.40;;;;;;;-5.17;83.09;98822.75;219050;1254;140083;-66
2023/11/29 18:44:13;;;;;;;;;;;;;;;-5.22;83.28;98815.35;218688;1254;140192;-66
2023/11/29 18:49:19;;;;;;;45.60;21.80;;;;;;;-5.27;83.26;98814.91;218207;1254;126069;-65
2023/11/29 18:54:26;;;;;;;37.50;19.50;;;;;;;-5.32;83.31;98815.81;218051;1253;140571;-64
2023/11/29 18:59:34;;;;;;;52.80;23.30;;;;;;;-5.35;83.67;98819.41;218063;1257;141052;-64
2023/11/29 19:04:38;;;;;;;46.10;19.90;;;;;;;-5.35;83.82;98810.58;218280;1257;140854;-64
2023/11/29 19:09:45;;;;;;;47.60;21.50;;;;;;;-5.35;83.85;98807.72;218974;1253;140336;-61
2023/11/29 19:14:52;;;;;;;45.20;23.00;;;;;;;-5.36;83.79;98810.15;218234;1254;139987;-65
2023/11/29 19:19:56;;;;;;;45.40;19.00;;;;;;;-5.36;83.85;98809.30;218430;1257;140962;-65
2023/11/29 19:25:00;;;;;;;50.80;20.00;;;;;;;-5.37;83.85;98805.40;219201;1254;140432;-64
2023/11/29 19:30:07;;;;;;;60.40;24.60;;;;;;;-5.37;83.96;98799.55;218023;1254;141512;-64
2023/11/29 19:35:13;;;;;;;52.30;24.20;;;;;;;-5.39;83.88;98797.83;219348;1254;141443;-64
2023/11/29 19:40:31;;;;;;;;;;;;;;;-5.42;84.03;98796.02;219845;1253;140744;-64
2023/11/29 19:45:36;;;;;;;42.60;18.00;;;;;;;-5.44;83.93;98798.32;218238;1254;127095;-64
2023/11/29 19:50:40;;;;;;;44.30;21.70;;;;;;;-5.44;84.08;98796.80;219541;1254;140596;-64
2023/11/29 19:55:45;;;;;;;41.90;19.40;;;;;;;-5.45;84.15;98796.02;220494;1255;320441;-65
2023/11/29 20:00:48;;;;;;;46.00;22.30;;;;;;;-5.46;83.96;98791.59;220856;1253;140732;-67
2023/11/29 20:05:55;;;;;;;54.90;22.30;;;;;;;-5.45;84.22;98788.88;220520;1253;141172;-68
2023/11/29 20:11:00;;;;;;;52.20;21.10;;;;;;;-5.42;84.13;98792.27;218309;1257;142337;-67
2023/11/29 20:16:07;;;;;;;48.40;22.70;;;;;;;-5.40;83.96;98790.20;219707;1255;140221;-66
2023/11/29 20:21:11;;;;;;;53.30;22.00;;;;;;;-5.39;84.20;98790.20;220156;1253;140732;-66
2023/11/29 20:26:16;;;;;;;62.80;27.20;;;;;;;-5.36;83.99;98794.76;218643;1254;139877;-67
2023/11/29 20:31:23;;;;;;;41.80;23.10;;;;;;;-5.34;84.07;98790.61;219576;1253;140067;-67
2023/11/29 20:36:27;;;;;;;;;;;;;;;-5.33;84.39;98786.85;217860;1254;139922;-66
2023/11/29 20:41:35;;;;;;;35.20;19.60;;;;;;;-5.34;84.15;98782.49;218153;1257;126334;-66
2023/11/29 20:46:40;;;;;;;43.10;20.60;;;;;;;-5.37;84.40;98780.15;218537;1253;140152;-66
2023/11/29 20:51:45;;;;;;;41.00;23.60;;;;;;;-5.38;84.16;98779.02;218556;1257;140375;-66
2023/11/29 20:56:50;;;;;;;55.60;24.00;;;;;;;-5.41;84.40;98779.31;218971;1257;140678;-65
2023/11/29 21:01:56;;;;;;;51.30;24.60;;;;;;;-5.41;84.42;98780.58;217950;1254;139999;-65
2023/11/29 21:07:01;;;;;;;52.20;23.60;;;;;;;-5.42;84.66;98774.38;217586;1254;140303;-65
2023/11/29 21:12:07;;;;;;;47.60;19.60;;;;;;;-5.43;84.48;98770.50;218623;1254;140075;-65
2023/11/29 21:17:12;;;;;;;50.60;24.70;;;;;;;-5.44;84.40;98760.44;219675;1253;140978;-66
2023/11/29 21:22:16;;;;;;;44.40;24.20;;;;;;;-5.44;84.58;98758.30;219109;1254;236496;-67
2023/11/29 21:27:19;;;;;;;46.00;23.50;;;;;;;-5.39;84.62;98761.89;220000;1253;140354;-67
2023/11/29 21:32:24;;;;;;;47.50;21.60;;;;;;;-5.37;84.52;98761.41;218878;1256;140563;-66
2023/11/29 21:37:29;;;;;;;54.60;23.50;;;;;;;-5.36;84.51;98760.31;219478;1253;140026;-68
2023/11/29 21:42:34;;;;;;;48.90;24.40;;;;;;;-5.34;84.49;98758.73;218629;1254;141197;-67
2023/11/29 21:47:40;;;;;;;48.50;24.40;;;;;;;-5.32;84.74;98758.38;218842;1254;140526;-66
2023/11/29 21:52:45;;;;;;;48.70;25.30;;;;;;;-5.31;84.65;98758.77;219803;1253;142552;-67
2023/11/29 21:57:49;;;;;;;53.20;26.40;;;;;;;-5.26;84.91;98758.79;220775;1253;140395;-66
2023/11/29 22:02:54;;;;;;;59.70;25.00;;;;;;;-5.21;84.75;98758.77;220800;1254;142119;-68
2023/11/29 22:07:59;;;;;;;52.80;23.20;;;;;;;-5.13;84.76;98755.70;219833;1253;140036;-67
2023/11/29 22:13:05;;;;;;;47.10;24.20;;;;;;;-5.03;85.12;98753.84;219636;1254;140215;-67
2023/11/29 22:18:10;;;;;;;38.30;19.30;;;;;;;-4.95;84.86;98752.63;218870;1253;139928;-67
2023/11/29 22:23:15;;;;;;;46.60;21.80;;;;;;;-4.90;85.01;98749.81;219417;1255;140198;-67
2023/11/29 22:28:20;;;;;;;285.20;96.90;;;;;;;-4.86;85.11;98744.86;218820;1254;141095;-66
2023/11/29 22:33:24;;;;;;;56.10;26.10;;;;;;;-4.84;84.93;98742.71;218695;1253;142058;-65
2023/11/29 22:38:30;;;;;;;76.10;46.30;;;;;;;-4.84;84.85;98739.30;219010;1254;237134;-66
2023/11/29 22:43:35;;;;;;;37.40;20.20;;;;;;;-4.82;84.85;98736.67;219200;1255;140373;-66
2023/11/29 22:48:40;;;;;;;52.20;23.20;;;;;;;-4.83;84.88;98734.83;218909;1257;140528;-66
2023/11/29 22:53:48;;;;;;;56.60;27.20;;;;;;;-4.86;84.94;98725.27;218392;1256;140289;-65
2023/11/29 22:58:55;;;;;;;39.60;19.90;;;;;;;-4.86;84.92;98726.50;218632;1257;139913;-64